Tallmansville, West Virginia
Current Conditions -  °F | °C
As of 10:15 AM on Thursday 18 Dec 2014 (Local Time) from KW22 Reporting Station
Haze Haze  
Wind Chill: 19°   Ceiling: 2300
Heat Index: 25°   Visibility: 3mi
Dew Point: 21°   Wind: 5mph
Humidity: 86%   Direction: 220°SW
Pressure: 30.2"   Gusts: NA
Location:  38.91°N, 80.18°W
Report Text: KW22 181515Z AUTO 22004KT 3SM BR FEW001 OVC023 M04/M06 A3020 RMK AO2
Loading
Personal Weather Stations






























Interactive Weather Map New forecast layout! Learn more

10-Day Weather Forecast

Advertisements
Track Severe Weather on mobile